Time;durP1;ratioP1;P1;durP2;ratioP2;P2;SDS_P1;SDS_P2;PMS_P1;PMS_P2;Temp;Humidity;BMP_temperature;BMP_pressure;BME280_temperature;BME280_humidity;BME280_pressure;Samples;Min_cycle;Max_cycle;Signal;HPM_P1;HPM_P2
2022/06/24 00:00:41;;;;;;;14.80;7.72;;;;;;;21.73;89.97;100498.69;5116515;28;20051;-59
2022/06/24 00:03:18;;;;;;;12.27;7.15;;;;;;;21.61;90.73;100514.63;5116296;28;20157;-60
2022/06/24 00:05:45;;;;;;;11.27;7.35;;;;;;;21.51;92.77;100541.81;5116350;28;20136;-60
2022/06/24 00:08:11;;;;;;;14.30;8.23;;;;;;;21.51;93.10;100575.59;5116533;28;20081;-60
2022/06/24 00:10:37;;;;;;;12.80;7.90;;;;;;;21.59;94.02;100604.41;5116350;28;20095;-59
2022/06/24 00:13:05;;;;;;;15.70;9.10;;;;;;;21.40;95.06;100592.25;5116360;28;20630;-60
2022/06/24 00:15:33;;;;;;;18.33;10.00;;;;;;;21.29;97.97;100575.25;5115741;28;20031;-59
2022/06/24 00:18:11;;;;;;;28.77;12.73;;;;;;;21.05;100.00;100596.19;5116210;28;20067;-59
2022/06/24 00:20:47;;;;;;;23.92;14.38;;;;;;;20.76;100.00;100625.41;5116003;28;20442;-58
2022/06/24 00:23:15;;;;;;;26.40;18.65;;;;;;;20.59;100.00;100648.59;5116376;28;20036;-60
2022/06/24 00:25:42;;;;;;;31.15;20.00;;;;;;;20.47;100.00;100656.31;5116168;28;20035;-59
2022/06/24 00:28:10;;;;;;;33.45;21.45;;;;;;;20.37;100.00;100676.41;5106966;28;20066;-59
2022/06/24 00:30:37;;;;;;;35.58;24.20;;;;;;;20.40;100.00;100673.59;5096214;28;20134;-61
2022/06/24 00:33:12;;;;;;;38.58;25.08;;;;;;;20.30;100.00;100667.03;5095691;28;20065;-60
2022/06/24 00:35:39;;;;;;;31.02;24.55;;;;;;;20.24;100.00;100663.88;5095543;28;20040;-59
2022/06/24 00:38:28;;;;;;;27.75;22.05;;;;;;;20.05;100.00;100669.34;5095542;28;20024;-59
2022/06/24 00:41:04;;;;;;;23.63;19.17;;;;;;;19.95;100.00;100700.00;5095360;28;20032;-60
2022/06/24 00:43:34;;;;;;;21.65;17.33;;;;;;;19.84;100.00;100697.94;5095759;28;20024;-60
2022/06/24 00:46:10;;;;;;;25.50;16.73;;;;;;;19.84;100.00;100692.63;5095652;28;20036;-59
2022/06/24 00:48:38;;;;;;;16.63;14.35;;;;;;;19.72;100.00;100672.06;5095400;28;20423;-61
2022/06/24 00:51:04;;;;;;;16.52;12.02;;;;;;;19.45;100.00;100639.84;5095565;28;20347;-61
2022/06/24 00:53:41;;;;;;;19.98;13.00;;;;;;;19.47;100.00;100668.00;5095087;28;20032;-61
2022/06/24 00:56:10;;;;;;;14.80;10.88;;;;;;;19.24;100.00;100664.84;5095184;28;20032;-61
2022/06/24 00:58:37;;;;;;;13.75;8.70;;;;;;;19.19;100.00;100672.19;5095327;28;20096;-61
2022/06/24 01:01:03;;;;;;;11.05;5.88;;;;;;;19.02;100.00;100665.13;5095434;28;20031;-61
2022/06/24 01:03:40;;;;;;;8.50;4.90;;;;;;;18.87;100.00;100664.09;5095337;28;20062;-60
2022/06/24 01:06:06;;;;;;;7.38;4.45;;;;;;;18.70;100.00;100648.19;5095210;28;20061;-61
2022/06/24 01:08:32;;;;;;;5.90;4.40;;;;;;;18.48;100.00;100637.75;5095467;28;20043;-60
2022/06/24 01:10:57;;;;;;;6.40;3.63;;;;;;;18.49;100.00;100628.00;5095153;28;20366;-60
2022/06/24 01:13:23;;;;;;;6.80;3.55;;;;;;;18.42;100.00;100615.06;5095494;28;20043;-60
2022/06/24 01:15:48;;;;;;;5.47;3.55;;;;;;;18.22;100.00;100604.56;5094534;28;20024;-60
2022/06/24 01:18:14;;;;;;;5.10;3.13;;;;;;;18.19;100.00;100607.38;5095207;28;20070;-61
2022/06/24 01:20:39;;;;;;;4.40;3.20;;;;;;;18.09;100.00;100617.56;5094832;28;20067;-60
2022/06/24 01:23:04;;;;;;;4.00;3.17;;;;;;;17.89;100.00;100608.84;5094931;28;20064;-60
2022/06/24 01:25:31;;;;;;;5.65;3.20;;;;;;;18.03;100.00;100615.19;5095287;28;20085;-60
2022/06/24 01:27:57;;;;;;;4.00;2.70;;;;;;;18.03;100.00;100604.59;5094802;28;20040;-60
2022/06/24 01:30:22;;;;;;;4.45;2.35;;;;;;;17.97;100.00;100602.28;5094927;28;20128;-61
2022/06/24 01:32:47;;;;;;;4.93;2.50;;;;;;;17.95;100.00;100611.22;5095589;28;20036;-61
2022/06/24 01:35:13;;;;;;;5.30;2.67;;;;;;;17.96;100.00;100611.13;5095086;28;20028;-62
2022/06/24 01:37:38;;;;;;;3.90;2.28;;;;;;;17.94;100.00;100607.69;5094900;28;20273;-61
2022/06/24 01:40:04;;;;;;;3.92;2.25;;;;;;;17.93;100.00;100605.97;5094705;28;20118;-61
2022/06/24 01:42:29;;;;;;;3.97;2.40;;;;;;;18.00;100.00;100612.72;5094878;28;20042;-61
2022/06/24 01:44:55;;;;;;;3.13;2.13;;;;;;;17.80;100.00;100557.22;5094706;28;20028;-63
2022/06/24 01:47:20;;;;;;;3.30;1.80;;;;;;;18.03;100.00;100577.25;5094763;28;20135;-60
2022/06/24 01:49:45;;;;;;;3.08;1.70;;;;;;;18.00;100.00;100572.13;5095138;28;20039;-61
2022/06/24 01:52:11;;;;;;;2.13;1.60;;;;;;;17.92;100.00;100575.16;5094781;28;20494;-60
2022/06/24 01:54:36;;;;;;;2.70;1.70;;;;;;;17.85;100.00;100564.91;5095147;28;20024;-60
2022/06/24 01:57:02;;;;;;;2.60;1.70;;;;;;;17.76;100.00;100568.00;5094933;28;20039;-61
2022/06/24 01:59:27;;;;;;;4.90;1.70;;;;;;;17.80;100.00;100572.22;5094747;28;20032;-61
2022/06/24 02:01:52;;;;;;;2.43;1.60;;;;;;;17.77;100.00;100575.03;5094722;28;20336;-61
2022/06/24 02:04:18;;;;;;;2.55;1.67;;;;;;;17.79;100.00;100571.38;5095010;28;20349;-61
2022/06/24 02:06:43;;;;;;;4.50;1.55;;;;;;;17.66;100.00;100559.66;5094994;28;20036;-61
2022/06/24 02:09:09;;;;;;;3.60;1.90;;;;;;;17.63;100.00;100557.13;5094587;28;20139;-61
2022/06/24 02:14:20;;;;;;;4.13;1.40;;;;;;;17.73;100.00;100561.06;5096967;28;20112;-61
2022/06/24 02:16:46;;;;;;;1.92;1.45;;;;;;;17.74;100.00;100566.28;5097984;28;20036;-60
2022/06/24 02:19:12;;;;;;;2.15;1.52;;;;;;;17.78;100.00;100564.34;5098096;28;20039;-61
2022/06/24 02:21:39;;;;;;;1.73;1.40;;;;;;;17.78;100.00;100564.34;5098198;28;20024;-60
2022/06/24 02:24:05;;;;;;;1.88;1.70;;;;;;;17.74;100.00;100574.22;5098134;28;20031;-62
2022/06/24 02:26:30;;;;;;;1.95;1.60;;;;;;;17.78;100.00;100572.31;5098448;28;20511;-61
2022/06/24 02:28:55;;;;;;;1.80;1.50;;;;;;;17.84;100.00;100566.69;5097695;28;20343;-61
2022/06/24 02:31:21;;;;;;;1.75;1.42;;;;;;;17.88;100.00;100568.28;5098028;28;20435;-59
2022/06/24 02:33:47;;;;;;;1.77;1.67;;;;;;;17.94;100.00;100565.34;5097760;28;20032;-61
2022/06/24 02:36:12;;;;;;;2.45;1.50;;;;;;;17.97;100.00;100559.03;5097971;28;20036;-61
2022/06/24 02:38:39;;;;;;;3.42;1.90;;;;;;;18.04;100.00;100548.06;5098035;28;20047;-60
2022/06/24 02:41:04;;;;;;;1.70;1.40;;;;;;;18.04;100.00;100542.75;5097811;28;20115;-61
2022/06/24 02:43:32;;;;;;;3.55;1.80;;;;;;;18.00;100.00;100538.56;5097744;28;20032;-61
2022/06/24 02:46:01;;;;;;;3.78;2.05;;;;;;;17.82;100.00;100542.13;5097564;28;20069;-61
2022/06/24 02:48:28;;;;;;;2.97;2.05;;;;;;;17.77;100.00;100540.59;5097826;28;20042;-61
2022/06/24 02:50:56;;;;;;;3.47;2.00;;;;;;;17.87;100.00;100531.28;5097545;28;20024;-61
2022/06/24 02:53:22;;;;;;;3.70;2.28;;;;;;;17.90;100.00;100525.84;5097442;28;20035;-60
2022/06/24 02:55:55;;;;;;;2.83;2.35;;;;;;;17.84;100.00;100528.78;5097467;28;20100;-60
2022/06/24 02:58:21;;;;;;;2.60;2.30;;;;;;;17.91;100.00;100519.63;5097810;28;20024;-60
2022/06/24 03:00:47;;;;;;;4.95;2.60;;;;;;;17.87;100.00;100518.91;5097035;28;20039;-60
2022/06/24 03:03:14;;;;;;;2.60;2.40;;;;;;;17.87;100.00;100525.97;5097314;28;20065;-61
2022/06/24 03:05:40;;;;;;;3.03;2.38;;;;;;;17.88;100.00;100519.75;5097236;28;20032;-60
2022/06/24 03:08:06;;;;;;;5.32;2.38;;;;;;;17.88;100.00;100502.09;5097534;28;20137;-60
2022/06/24 03:10:32;;;;;;;5.38;2.53;;;;;;;17.92;100.00;100511.59;5097044;28;20032;-60
2022/06/24 03:12:57;;;;;;;3.83;2.50;;;;;;;18.02;100.00;100512.00;5096839;28;20042;-61
2022/06/24 03:15:23;;;;;;;2.92;2.63;;;;;;;17.90;100.00;100507.31;5097047;28;20031;-60
2022/06/24 03:17:48;;;;;;;2.78;2.30;;;;;;;17.89;100.00;100500.28;5096965;28;20109;-60
2022/06/24 03:20:13;;;;;;;3.05;2.58;;;;;;;17.84;100.00;100495.22;5096566;28;20110;-60
2022/06/24 03:22:39;;;;;;;3.53;2.22;;;;;;;17.86;100.00;100498.66;5097139;28;20087;-61
2022/06/24 03:25:06;;;;;;;3.53;2.40;;;;;;;17.88;100.00;100495.94;5096042;28;20054;-61
2022/06/24 03:27:31;;;;;;;3.97;2.70;;;;;;;17.96;100.00;100493.78;5097215;28;20535;-60
2022/06/24 03:29:57;;;;;;;3.47;2.70;;;;;;;18.11;100.00;100495.66;5097067;28;20075;-61
2022/06/24 03:32:22;;;;;;;3.65;3.08;;;;;;;18.18;100.00;100499.72;5097013;28;20044;-61
2022/06/24 03:34:47;;;;;;;5.22;3.65;;;;;;;18.07;100.00;100475.56;5096881;28;20409;-60
2022/06/24 03:37:13;;;;;;;4.13;3.42;;;;;;;18.26;100.00;100492.25;5097414;28;20070;-59
2022/06/24 03:39:38;;;;;;;4.65;3.53;;;;;;;18.32;100.00;100473.41;5096509;28;20024;-60
2022/06/24 03:42:04;;;;;;;4.35;3.35;;;;;;;18.35;100.00;100473.25;5096392;28;20024;-59
2022/06/24 03:44:29;;;;;;;3.92;3.50;;;;;;;18.28;100.00;100476.28;5096415;28;20020;-61
2022/06/24 03:46:55;;;;;;;5.38;3.92;;;;;;;18.27;100.00;100485.16;5096861;28;20027;-61
2022/06/24 03:49:20;;;;;;;4.30;3.05;;;;;;;18.36;100.00;100477.56;5096688;28;20101;-60
2022/06/24 03:51:46;;;;;;;4.15;3.75;;;;;;;18.37;100.00;100479.28;5096741;28;20043;-60
2022/06/24 03:54:11;;;;;;;5.20;3.78;;;;;;;18.39;100.00;100495.13;5096299;28;20032;-62
2022/06/24 03:56:37;;;;;;;4.30;3.90;;;;;;;18.34;100.00;100505.13;5096254;28;20063;-60
2022/06/24 03:59:03;;;;;;;4.47;4.00;;;;;;;18.43;100.00;100520.53;5096018;28;20042;-61
2022/06/24 04:01:28;;;;;;;4.57;3.80;;;;;;;18.43;100.00;100518.72;5096226;28;20427;-60
2022/06/24 04:03:53;;;;;;;5.05;3.97;;;;;;;18.41;100.00;100507.34;5096029;28;20028;-61
2022/06/24 04:06:19;;;;;;;4.78;4.28;;;;;;;18.47;100.00;100516.78;5096169;28;20131;-61
2022/06/24 04:08:44;;;;;;;5.82;3.78;;;;;;;18.53;100.00;100531.53;5096429;28;20406;-60
2022/06/24 04:11:14;;;;;;;5.07;4.35;;;;;;;18.47;100.00;100539.78;5096174;28;20024;-60
2022/06/24 04:13:40;;;;;;;4.60;4.20;;;;;;;18.47;100.00;100540.63;5095772;28;20454;-60
2022/06/24 04:16:05;;;;;;;4.85;4.38;;;;;;;18.58;100.00;100543.59;5095599;28;20074;-60
2022/06/24 04:18:31;;;;;;;6.38;4.68;;;;;;;18.62;100.00;100546.97;5104709;28;20028;-59
2022/06/24 04:20:57;;;;;;;5.55;4.43;;;;;;;18.67;100.00;100543.16;5105731;28;20032;-60
2022/06/24 04:23:23;;;;;;;6.05;5.18;;;;;;;18.62;100.00;100542.53;5104523;28;20053;-60
2022/06/24 04:25:49;;;;;;;6.25;5.00;;;;;;;18.66;100.00;100545.88;5105801;28;20035;-59
2022/06/24 04:28:14;;;;;;;6.18;5.57;;;;;;;18.57;100.00;100539.22;5105499;28;20036;-60
2022/06/24 04:30:40;;;;;;;7.78;5.80;;;;;;;18.58;100.00;100548.88;5104210;28;20127;-59
2022/06/24 04:33:05;;;;;;;7.78;5.60;;;;;;;18.52;100.00;100537.75;5104173;28;20040;-59
2022/06/24 04:35:30;;;;;;;6.43;5.60;;;;;;;18.59;100.00;100540.03;5105785;28;20055;-59
2022/06/24 04:37:56;;;;;;;6.63;5.70;;;;;;;18.51;100.00;100538.69;5105550;28;20024;-59
2022/06/24 04:40:21;;;;;;;7.27;5.80;;;;;;;18.58;100.00;100537.44;5103410;28;20024;-59
2022/06/24 04:42:47;;;;;;;6.75;5.90;;;;;;;18.64;100.00;100534.50;5105798;28;20273;-59
2022/06/24 04:45:12;;;;;;;7.35;6.03;;;;;;;18.66;100.00;100532.63;5105007;28;20020;-59
2022/06/24 04:47:38;;;;;;;6.55;5.95;;;;;;;18.71;100.00;100527.94;5104536;28;20447;-59
2022/06/24 04:50:04;;;;;;;7.03;6.25;;;;;;;18.74;100.00;100528.63;5105890;28;20030;-59
2022/06/24 04:52:31;;;;;;;8.00;6.25;;;;;;;18.85;100.00;100533.41;5104235;28;20040;-60
2022/06/24 04:54:56;;;;;;;6.95;6.25;;;;;;;18.87;100.00;100523.56;5104092;28;20098;-59
2022/06/24 04:57:22;;;;;;;7.28;6.55;;;;;;;18.95;100.00;100531.09;5105778;28;20123;-60
2022/06/24 04:59:47;;;;;;;8.10;6.90;;;;;;;18.93;100.00;100527.66;5103835;28;20048;-60
2022/06/24 05:02:12;;;;;;;7.53;6.78;;;;;;;18.97;100.00;100529.22;5104900;28;20027;-59
2022/06/24 05:04:38;;;;;;;8.68;7.07;;;;;;;18.87;100.00;100525.38;5114497;28;20027;-59
2022/06/24 05:07:03;;;;;;;7.85;7.07;;;;;;;18.89;100.00;100539.38;5115418;28;20415;-60
2022/06/24 05:09:29;;;;;;;8.85;7.45;;;;;;;18.86;100.00;100535.13;5115312;28;20033;-60
2022/06/24 05:11:54;;;;;;;8.52;7.60;;;;;;;18.90;100.00;100538.44;5114985;28;20120;-60
2022/06/24 05:14:19;;;;;;;8.40;7.55;;;;;;;18.92;100.00;100544.53;5109885;28;20035;-60
2022/06/24 05:16:45;;;;;;;9.70;7.95;;;;;;;18.94;100.00;100542.66;5095107;28;20047;-59
2022/06/24 05:19:10;;;;;;;9.20;8.27;;;;;;;18.91;100.00;100540.16;5094742;28;20020;-59
2022/06/24 05:21:36;;;;;;;10.10;9.10;;;;;;;18.91;100.00;100540.16;5094976;28;20032;-61
2022/06/24 05:24:02;;;;;;;9.88;8.73;;;;;;;18.85;100.00;100538.69;5094776;28;20028;-60
2022/06/24 05:26:27;;;;;;;11.65;10.05;;;;;;;18.85;100.00;100535.19;5094893;28;20097;-60
2022/06/24 05:28:53;;;;;;;11.30;10.15;;;;;;;18.89;100.00;100542.03;5094084;28;20130;-60
2022/06/24 05:31:18;;;;;;;10.88;9.80;;;;;;;18.92;100.00;100544.53;5094181;28;20036;-60
2022/06/24 05:33:43;;;;;;;10.70;9.60;;;;;;;18.90;100.00;100549.91;5094468;28;20031;-59
2022/06/24 05:36:09;;;;;;;11.23;9.65;;;;;;;18.92;100.00;100555.97;5094591;28;20411;-59
2022/06/24 05:38:35;;;;;;;11.85;10.32;;;;;;;18.89;100.00;100547.31;5094463;28;20169;-60
2022/06/24 05:41:02;;;;;;;11.30;9.68;;;;;;;18.91;100.00;100548.09;5094289;28;20032;-59
2022/06/24 05:43:27;;;;;;;10.30;9.20;;;;;;;18.91;100.00;100548.09;5094273;28;20409;-59
2022/06/24 05:45:53;;;;;;;11.50;9.65;;;;;;;18.87;100.00;100547.44;5098068;28;20170;-59
2022/06/24 05:48:18;;;;;;;14.23;10.02;;;;;;;18.91;100.00;100546.31;5114944;28;20035;-59
2022/06/24 05:50:43;;;;;;;11.43;9.77;;;;;;;18.99;100.00;100543.28;5119221;28;20111;-59
2022/06/24 05:55:58;;;;;;;12.85;10.98;;;;;;;19.02;100.00;100543.97;5118387;28;20078;-61
2022/06/24 05:58:27;;;;;;;15.20;11.70;;;;;;;19.12;100.00;100549.63;5118600;28;20028;-60
2022/06/24 06:00:54;;;;;;;15.68;12.82;;;;;;;19.12;100.00;100544.31;5118577;28;20039;-60
2022/06/24 06:03:22;;;;;;;14.63;12.60;;;;;;;19.20;100.00;100541.28;5118665;28;20464;-60
2022/06/24 06:05:48;;;;;;;15.52;13.48;;;;;;;19.23;100.00;100538.44;5118031;28;20482;-59
2022/06/24 06:08:13;;;;;;;19.33;15.05;;;;;;;19.16;100.00;100545.03;5118348;28;20111;-60
2022/06/24 06:10:39;;;;;;;20.80;15.02;;;;;;;19.16;100.00;100543.22;5118379;28;20032;-60
2022/06/24 06:13:04;;;;;;;20.70;16.48;;;;;;;19.21;100.00;100543.00;5118399;28;20351;-60
2022/06/24 06:15:30;;;;;;;23.80;17.35;;;;;;;19.21;100.00;100543.84;5118517;28;20035;-60
2022/06/24 06:17:56;;;;;;;26.02;17.83;;;;;;;19.22;100.00;100539.41;5118670;28;20107;-60
2022/06/24 06:20:21;;;;;;;28.65;19.58;;;;;;;19.21;100.00;100543.00;5117513;28;20176;-53
2022/06/24 06:22:47;;;;;;;26.90;18.85;;;;;;;19.27;100.00;100553.25;5101284;28;20071;-52
2022/06/24 06:25:14;;;;;;;29.52;19.27;;;;;;;19.22;100.00;100545.53;5097717;28;20036;-55
2022/06/24 06:27:40;;;;;;;32.50;20.50;;;;;;;19.20;100.00;100541.28;5097990;28;20111;-61
2022/06/24 06:30:06;;;;;;;35.40;22.95;;;;;;;19.24;100.00;100534.84;5097737;28;20051;-60
2022/06/24 06:32:31;;;;;;;36.83;23.48;;;;;;;19.23;100.00;100546.38;5097668;28;20093;-61
2022/06/24 06:34:56;;;;;;;32.10;21.52;;;;;;;19.19;100.00;100547.53;5097547;28;20032;-61
2022/06/24 06:37:21;;;;;;;34.13;22.30;;;;;;;19.20;100.00;100544.78;5097335;28;20028;-61
2022/06/24 06:39:48;;;;;;;27.90;20.48;;;;;;;19.19;100.00;100550.16;5097756;28;20061;-59
2022/06/24 06:42:13;;;;;;;30.30;20.92;;;;;;;19.20;100.00;100546.59;5097376;28;20048;-59
2022/06/24 06:44:38;;;;;;;29.08;20.27;;;;;;;19.24;100.00;100556.06;5097531;28;20120;-60
2022/06/24 06:47:04;;;;;;;26.73;19.20;;;;;;;19.23;100.00;100533.13;5097488;28;20101;-59
2022/06/24 06:49:29;;;;;;;28.83;20.65;;;;;;;19.27;100.00;100542.63;5108104;28;20746;-60
2022/06/24 06:51:54;;;;;;;29.20;20.77;;;;;;;19.24;100.00;100541.00;5117524;28;20516;-59
2022/06/24 06:54:20;;;;;;;27.90;22.10;;;;;;;19.18;100.00;100544.00;5117391;28;20045;-60
2022/06/24 06:56:45;;;;;;;30.48;22.70;;;;;;;19.22;100.00;100540.22;5117396;28;20281;-59
2022/06/24 06:59:10;;;;;;;30.92;22.65;;;;;;;19.21;100.00;100543.00;5117612;28;20031;-59
2022/06/24 07:01:36;;;;;;;28.52;22.80;;;;;;;19.20;100.00;100543.94;5117067;28;20047;-58
2022/06/24 07:04:01;;;;;;;27.08;21.85;;;;;;;19.19;100.00;100539.56;5117273;28;20034;-61
2022/06/24 07:06:26;;;;;;;26.27;23.42;;;;;;;19.24;100.00;100534.84;5089681;28;20055;-59
2022/06/24 07:08:51;;;;;;;27.58;23.00;;;;;;;19.25;100.00;100536.56;5105093;28;20092;-59
2022/06/24 07:11:17;;;;;;;26.67;22.25;;;;;;;19.22;100.00;100537.56;5096827;28;20028;-59
2022/06/24 07:13:43;;;;;;;31.10;22.92;;;;;;;19.27;100.00;100534.69;5114379;28;20430;-63
2022/06/24 07:16:11;;;;;;;26.10;23.00;;;;;;;19.21;100.00;100524.41;5117110;28;20350;-56
2022/06/24 07:18:36;;;;;;;29.25;22.83;;;;;;;19.29;100.00;100520.41;5116902;28;20031;-55
2022/06/24 07:21:02;;;;;;;30.48;22.83;;;;;;;19.24;100.00;100495.03;5111891;28;20123;-63
2022/06/24 07:23:27;;;;;;;25.30;22.00;;;;;;;19.35;100.00;100505.94;5106176;28;20028;-62
2022/06/24 07:25:57;;;;;;;29.20;23.90;;;;;;;19.38;100.00;100516.41;5109110;28;20023;-60
2022/06/24 07:28:22;;;;;;;28.73;23.85;;;;;;;19.44;100.00;100519.53;5116987;28;20082;-62
2022/06/24 07:30:47;;;;;;;26.55;22.60;;;;;;;19.47;100.00;100505.25;5116967;28;20446;-63
2022/06/24 07:33:12;;;;;;;29.88;23.58;;;;;;;19.53;100.00;100512.94;5116671;28;20039;-62
2022/06/24 07:35:38;;;;;;;31.30;25.10;;;;;;;19.56;100.00;100523.38;5116397;28;20453;-63
2022/06/24 07:38:03;;;;;;;30.97;23.87;;;;;;;19.55;100.00;100537.59;5098252;28;20124;-62
2022/06/24 07:40:28;;;;;;;30.65;24.42;;;;;;;19.43;100.00;100516.97;5114219;28;20289;-62
2022/06/24 07:42:54;;;;;;;29.92;25.20;;;;;;;19.54;100.00;100543.84;5116745;28;20027;-63
2022/06/24 07:45:19;;;;;;;30.80;26.13;;;;;;;19.42;100.00;100533.84;5116599;28;20111;-62
2022/06/24 07:47:45;;;;;;;37.83;30.45;;;;;;;19.52;100.00;100556.34;5116432;28;20445;-62
2022/06/24 07:50:10;;;;;;;35.25;30.13;;;;;;;19.50;100.00;100563.50;5116133;28;20084;-63
2022/06/24 07:52:36;;;;;;;38.50;32.25;;;;;;;19.45;100.00;100555.75;5115930;28;20084;-63
2022/06/24 07:57:45;;;;;;;46.65;37.00;;;;;;;19.51;100.00;100559.94;5112774;28;20074;-63
2022/06/24 08:00:11;;;;;;;50.42;37.92;;;;;;;19.57;100.00;100559.56;5113205;28;20028;-62
2022/06/24 08:02:38;;;;;;;49.20;39.58;;;;;;;19.52;100.00;100558.97;5116244;28;20288;-62
2022/06/24 08:05:04;;;;;;;51.00;40.10;;;;;;;19.54;100.00;100562.41;5116075;28;20092;-62
2022/06/24 08:07:29;;;;;;;52.38;41.25;;;;;;;19.61;100.00;100558.47;5116171;28;20036;-62
2022/06/24 08:09:54;;;;;;;51.03;39.65;;;;;;;19.73;100.00;100560.47;5116134;28;20111;-62
2022/06/24 08:12:20;;;;;;;46.85;38.08;;;;;;;19.76;100.00;100557.59;5115534;28;20042;-63
2022/06/24 08:14:45;;;;;;;45.35;37.05;;;;;;;19.91;100.00;100557.72;5115725;28;20059;-63
2022/06/24 08:17:10;;;;;;;45.33;37.58;;;;;;;20.02;100.00;100565.91;5116084;28;20023;-63
2022/06/24 08:19:36;;;;;;;42.97;35.45;;;;;;;20.25;100.00;100565.47;5115494;28;20030;-62
2022/06/24 08:22:01;;;;;;;36.42;30.15;;;;;;;20.33;100.00;100563.22;5116501;28;20032;-63
2022/06/24 08:24:26;;;;;;;32.40;28.38;;;;;;;20.42;100.00;100557.41;5116015;28;20362;-62
2022/06/24 08:26:52;;;;;;;30.10;26.85;;;;;;;20.49;100.00;100553.41;5116020;28;20092;-63
2022/06/24 08:29:17;;;;;;;27.55;24.48;;;;;;;20.64;100.00;100549.00;5115515;28;20470;-62
2022/06/24 08:31:43;;;;;;;27.50;24.38;;;;;;;20.83;100.00;100546.94;5115671;28;20019;-62
2022/06/24 08:34:09;;;;;;;22.33;19.95;;;;;;;20.99;100.00;100541.53;5115797;28;20027;-63
2022/06/24 08:36:34;;;;;;;20.98;18.50;;;;;;;21.14;100.00;100543.25;5115648;28;20048;-62
2022/06/24 08:38:59;;;;;;;21.70;19.40;;;;;;;21.45;100.00;100546.72;5115546;28;20457;-63
2022/06/24 08:41:26;;;;;;;20.95;18.75;;;;;;;21.62;98.81;100548.28;5115731;28;20035;-62
2022/06/24 08:43:53;;;;;;;20.83;18.70;;;;;;;21.79;98.41;100548.06;5115015;28;20035;-63
2022/06/24 08:46:19;;;;;;;20.55;17.80;;;;;;;21.92;96.24;100548.97;5115522;28;20034;-62
2022/06/24 08:48:45;;;;;;;19.02;17.02;;;;;;;21.98;94.47;100550.41;5115512;28;20038;-63
2022/06/24 08:51:12;;;;;;;16.95;15.25;;;;;;;21.91;95.24;100554.41;5115985;28;20024;-63
2022/06/24 08:53:41;;;;;;;19.13;17.17;;;;;;;21.89;95.56;100549.16;5115537;28;20046;-63
2022/06/24 08:56:08;;;;;;;21.60;19.30;;;;;;;21.85;95.41;100540.50;5115059;28;20442;-62
2022/06/24 08:58:33;;;;;;;22.23;19.92;;;;;;;22.23;94.91;100543.38;5115087;28;20031;-62
2022/06/24 09:00:59;;;;;;;26.92;23.67;;;;;;;22.68;92.12;100537.72;5115151;28;20032;-62
2022/06/24 09:03:24;;;;;;;27.65;24.75;;;;;;;23.12;91.02;100545.31;5115242;28;20092;-63
2022/06/24 09:05:49;;;;;;;30.38;27.13;;;;;;;23.02;89.23;100538.94;5115413;28;20092;-62
2022/06/24 09:08:16;;;;;;;30.77;27.38;;;;;;;22.56;89.52;100547.38;5115374;28;20335;-62
2022/06/24 09:10:43;;;;;;;28.70;25.75;;;;;;;22.32;90.24;100546.38;5115267;28;20055;-63
2022/06/24 09:13:20;;;;;;;28.42;25.33;;;;;;;22.23;90.89;100546.03;5115091;28;20042;-63
2022/06/24 09:15:52;;;;;;;28.85;25.77;;;;;;;22.29;90.74;100542.09;5115107;28;20041;-62
2022/06/24 09:18:24;;;;;;;25.73;23.13;;;;;;;22.40;89.03;100541.38;5115280;28;20035;-62
2022/06/24 09:20:57;;;;;;;26.73;23.92;;;;;;;23.49;89.10;100543.56;5111892;28;20048;-62
2022/06/24 09:23:23;;;;;;;26.77;24.08;;;;;;;24.29;80.81;100542.13;5095230;28;20036;-63
2022/06/24 09:25:54;;;;;;;25.73;22.48;;;;;;;24.11;81.83;100554.16;5098966;28;20130;-62
2022/06/24 09:28:24;;;;;;;19.80;17.73;;;;;;;24.70;77.43;100546.16;5098757;28;20066;-62
2022/06/24 09:30:58;;;;;;;16.60;14.88;;;;;;;26.00;70.87;100538.38;5098900;28;20040;-62
2022/06/24 09:33:23;;;;;;;16.58;14.43;;;;;;;26.65;67.86;100523.97;5098366;28;20067;-63
2022/06/24 09:35:58;;;;;;;15.75;14.15;;;;;;;27.02;69.14;100529.72;5098520;28;20411;-62
2022/06/24 09:38:25;;;;;;;14.88;13.30;;;;;;;26.97;67.61;100528.44;5098634;28;20036;-62
2022/06/24 09:40:59;;;;;;;15.05;13.55;;;;;;;26.34;67.93;100527.53;5098247;28;20454;-61
2022/06/24 09:43:30;;;;;;;15.57;14.07;;;;;;;25.81;70.21;100529.28;5098560;28;20114;-62
2022/06/24 09:45:55;;;;;;;14.77;13.27;;;;;;;25.20;69.75;100532.38;5098480;28;20114;-62
2022/06/24 09:48:28;;;;;;;13.73;12.43;;;;;;;24.80;75.05;100539.13;5098512;28;20063;-63
2022/06/24 09:50:56;;;;;;;13.20;11.85;;;;;;;24.57;75.20;100538.22;5098140;28;20024;-62
2022/06/24 09:53:25;;;;;;;11.68;10.43;;;;;;;24.60;73.37;100535.28;5098613;28;20028;-62
2022/06/24 09:55:51;;;;;;;10.73;9.73;;;;;;;24.47;73.77;100526.50;5098405;28;20028;-61
2022/06/24 09:58:17;;;;;;;11.88;9.70;;;;;;;24.18;74.84;100531.38;5112164;28;20028;-63
2022/06/24 10:00:44;;;;;;;10.15;9.10;;;;;;;23.55;74.11;100530.63;5118845;28;20028;-62
2022/06/24 10:03:11;;;;;;;9.48;8.48;;;;;;;23.28;80.00;100532.59;5118467;28;20028;-63
2022/06/24 10:05:48;;;;;;;10.38;9.23;;;;;;;22.95;79.01;100541.16;5113953;28;20063;-63
2022/06/24 10:08:22;;;;;;;10.93;9.13;;;;;;;22.74;82.11;100537.28;5098111;28;20038;-63
2022/06/24 10:10:53;;;;;;;10.93;9.73;;;;;;;22.64;81.33;100541.53;5097765;28;20042;-63
2022/06/24 10:13:32;;;;;;;10.40;9.40;;;;;;;23.05;82.40;100538.69;5098055;28;20032;-65
2022/06/24 10:15:59;;;;;;;9.38;8.40;;;;;;;23.33;77.06;100534.94;5097886;28;20036;-64
2022/06/24 10:18:32;;;;;;;10.75;9.60;;;;;;;23.38;76.49;100530.13;5098185;28;20031;-62
2022/06/24 10:21:01;;;;;;;11.63;10.20;;;;;;;23.55;75.19;100551.19;5097811;28;20518;-64
2022/06/24 10:23:50;;;;;;;11.77;9.50;;;;;;;23.64;78.24;100546.97;5098025;28;20032;-62
2022/06/24 10:26:31;;;;;;;9.88;8.90;;;;;;;23.15;76.11;100563.78;5097256;28;20089;-60
2022/06/24 10:29:00;;;;;;;3.28;2.95;;;;;;;22.49;76.12;100586.97;5097936;28;20106;-62
2022/06/24 10:31:37;;;;;;;2.80;2.00;;;;;;;21.77;77.13;100596.13;5097893;28;20347;-63
2022/06/24 10:34:02;;;;;;;2.22;1.50;;;;;;;21.08;80.80;100599.53;5097628;28;20032;-60
2022/06/24 10:36:31;;;;;;;4.97;2.20;;;;;;;20.21;87.37;100606.44;5097735;28;20032;-61
2022/06/24 10:39:10;;;;;;;7.18;2.30;;;;;;;19.55;94.54;100595.13;5097841;28;20090;-61
2022/06/24 10:41:39;;;;;;;4.07;2.10;;;;;;;19.11;98.55;100603.63;5097629;28;20034;-62
2022/06/24 10:44:31;;;;;;;4.63;2.22;;;;;;;18.95;98.36;100602.69;5079789;28;20378;-61
2022/06/24 10:47:05;;;;;;;3.40;2.58;;;;;;;18.81;100.00;100602.56;5097384;28;20028;-60
2022/06/24 10:49:52;;;;;;;3.78;2.90;;;;;;;18.77;100.00;100605.38;5097729;28;20047;-62
2022/06/24 10:52:45;;;;;;;3.67;3.30;;;;;;;18.74;100.00;100615.25;5097958;28;20032;-62
2022/06/24 10:55:29;;;;;;;5.13;3.90;;;;;;;18.78;100.00;100604.44;5097669;28;20447;-61
2022/06/24 10:57:59;;;;;;;5.90;4.47;;;;;;;18.91;100.00;100598.50;5097461;28;20020;-62
2022/06/24 11:00:27;;;;;;;10.00;5.25;;;;;;;19.07;100.00;100587.00;5097714;28;20032;-62
2022/06/24 11:02:56;;;;;;;6.70;5.88;;;;;;;19.25;100.00;100585.16;5097184;28;20522;-61
2022/06/24 11:05:29;;;;;;;9.18;5.97;;;;;;;19.47;100.00;100588.38;5097794;28;20391;-61
2022/06/24 11:07:54;;;;;;;9.57;6.45;;;;;;;19.60;100.00;100582.44;5097209;28;20031;-61
2022/06/24 11:10:39;;;;;;;7.30;6.40;;;;;;;19.66;100.00;100575.00;5097451;28;20047;-62
2022/06/24 11:13:04;;;;;;;5.60;5.00;;;;;;;19.75;100.00;100576.28;5097286;28;20118;-62
2022/06/24 11:15:34;;;;;;;4.95;4.00;;;;;;;19.71;100.00;100569.44;5097178;28;20165;-61
2022/06/24 11:18:22;;;;;;;5.05;3.85;;;;;;;19.87;100.00;100569.44;5097400;28;20024;-61
2022/06/24 11:21:02;;;;;;;5.40;3.50;;;;;;;19.98;100.00;100561.72;5096939;28;20032;-61